sensor_id;sensor_type;location;lat;lon;timestamp;P1;durP1;ratioP1;P2;durP2;ratioP2
10248;SDS011;5169;50.560;9.714;2022-07-21T00:02:36;10.63;;;9.30;;
10248;SDS011;5169;50.560;9.714;2022-07-21T00:05:02;11.07;;;10.00;;
10248;SDS011;5169;50.560;9.714;2022-07-21T00:07:28;11.53;;;9.63;;
10248;SDS011;5169;50.560;9.714;2022-07-21T00:09:56;12.43;;;9.60;;
10248;SDS011;5169;50.560;9.714;2022-07-21T00:12:22;10.53;;;9.43;;
10248;SDS011;5169;50.560;9.714;2022-07-21T00:14:50;10.63;;;9.50;;
10248;SDS011;5169;50.560;9.714;2022-07-21T00:17:18;11.10;;;8.63;;
10248;SDS011;5169;50.560;9.714;2022-07-21T00:19:46;12.17;;;9.97;;
10248;SDS011;5169;50.560;9.714;2022-07-21T00:22:18;11.13;;;8.90;;
10248;SDS011;5169;50.560;9.714;2022-07-21T00:24:43;10.93;;;9.53;;
10248;SDS011;5169;50.560;9.714;2022-07-21T00:27:10;9.97;;;8.80;;
10248;SDS011;5169;50.560;9.714;2022-07-21T00:29:35;10.30;;;8.93;;
10248;SDS011;5169;50.560;9.714;2022-07-21T00:32:01;11.53;;;8.97;;
10248;SDS011;5169;50.560;9.714;2022-07-21T00:34:28;9.97;;;9.00;;
10248;SDS011;5169;50.560;9.714;2022-07-21T00:36:54;11.80;;;9.00;;
10248;SDS011;5169;50.560;9.714;2022-07-21T00:39:23;12.33;;;9.27;;
10248;SDS011;5169;50.560;9.714;2022-07-21T00:41:53;10.87;;;9.77;;
10248;SDS011;5169;50.560;9.714;2022-07-21T00:44:20;12.43;;;9.93;;
10248;SDS011;5169;50.560;9.714;2022-07-21T00:46:47;10.77;;;9.43;;
10248;SDS011;5169;50.560;9.714;2022-07-21T00:49:13;9.87;;;8.90;;
10248;SDS011;5169;50.560;9.714;2022-07-21T00:51:39;13.67;;;10.90;;
10248;SDS011;5169;50.560;9.714;2022-07-21T00:54:05;10.20;;;9.27;;
10248;SDS011;5169;50.560;9.714;2022-07-21T00:56:39;9.77;;;8.83;;
10248;SDS011;5169;50.560;9.714;2022-07-21T00:59:05;11.50;;;9.47;;
10248;SDS011;5169;50.560;9.714;2022-07-21T01:01:31;9.30;;;8.17;;
10248;SDS011;5169;50.560;9.714;2022-07-21T01:03:57;9.80;;;8.50;;
10248;SDS011;5169;50.560;9.714;2022-07-21T01:06:25;10.77;;;9.43;;
10248;SDS011;5169;50.560;9.714;2022-07-21T01:08:55;9.60;;;8.30;;
10248;SDS011;5169;50.560;9.714;2022-07-21T01:11:21;12.23;;;9.50;;
10248;SDS011;5169;50.560;9.714;2022-07-21T01:13:57;10.63;;;9.40;;
10248;SDS011;5169;50.560;9.714;2022-07-21T01:16:25;10.47;;;9.33;;
10248;SDS011;5169;50.560;9.714;2022-07-21T01:18:58;10.50;;;9.40;;
10248;SDS011;5169;50.560;9.714;2022-07-21T01:21:27;11.73;;;9.90;;
10248;SDS011;5169;50.560;9.714;2022-07-21T01:23:54;11.47;;;9.87;;
10248;SDS011;5169;50.560;9.714;2022-07-21T01:26:23;11.00;;;9.23;;
10248;SDS011;5169;50.560;9.714;2022-07-21T01:28:49;11.33;;;10.13;;
10248;SDS011;5169;50.560;9.714;2022-07-21T01:31:15;12.17;;;10.87;;
10248;SDS011;5169;50.560;9.714;2022-07-21T01:33:41;12.10;;;10.37;;
10248;SDS011;5169;50.560;9.714;2022-07-21T01:36:09;15.00;;;10.67;;
10248;SDS011;5169;50.560;9.714;2022-07-21T01:38:34;13.23;;;11.53;;
10248;SDS011;5169;50.560;9.714;2022-07-21T01:41:19;11.90;;;10.47;;
10248;SDS011;5169;50.560;9.714;2022-07-21T01:44:06;13.03;;;10.87;;
10248;SDS011;5169;50.560;9.714;2022-07-21T01:46:34;12.33;;;11.03;;
10248;SDS011;5169;50.560;9.714;2022-07-21T01:49:05;12.07;;;10.73;;
10248;SDS011;5169;50.560;9.714;2022-07-21T01:51:31;12.13;;;10.83;;
10248;SDS011;5169;50.560;9.714;2022-07-21T01:53:58;17.30;;;11.37;;
10248;SDS011;5169;50.560;9.714;2022-07-21T01:56:24;13.10;;;10.87;;
10248;SDS011;5169;50.560;9.714;2022-07-21T01:58:52;13.23;;;9.97;;
10248;SDS011;5169;50.560;9.714;2022-07-21T02:01:21;11.90;;;10.70;;
10248;SDS011;5169;50.560;9.714;2022-07-21T02:03:49;15.23;;;10.33;;
10248;SDS011;5169;50.560;9.714;2022-07-21T02:06:15;11.87;;;9.67;;
10248;SDS011;5169;50.560;9.714;2022-07-21T02:08:44;11.77;;;10.57;;
10248;SDS011;5169;50.560;9.714;2022-07-21T02:11:11;12.10;;;10.73;;
10248;SDS011;5169;50.560;9.714;2022-07-21T02:13:38;12.47;;;11.03;;
10248;SDS011;5169;50.560;9.714;2022-07-21T02:16:04;12.53;;;11.23;;
10248;SDS011;5169;50.560;9.714;2022-07-21T02:18:30;12.80;;;10.83;;
10248;SDS011;5169;50.560;9.714;2022-07-21T02:20:59;12.17;;;10.97;;
10248;SDS011;5169;50.560;9.714;2022-07-21T02:23:25;11.97;;;10.87;;
10248;SDS011;5169;50.560;9.714;2022-07-21T02:25:54;14.80;;;10.80;;
10248;SDS011;5169;50.560;9.714;2022-07-21T02:28:22;12.63;;;11.30;;
10248;SDS011;5169;50.560;9.714;2022-07-21T02:30:54;11.93;;;10.73;;
10248;SDS011;5169;50.560;9.714;2022-07-21T02:33:23;11.87;;;10.70;;
10248;SDS011;5169;50.560;9.714;2022-07-21T02:35:48;12.60;;;11.13;;
10248;SDS011;5169;50.560;9.714;2022-07-21T02:38:14;12.73;;;11.43;;
10248;SDS011;5169;50.560;9.714;2022-07-21T02:40:41;12.73;;;11.43;;
10248;SDS011;5169;50.560;9.714;2022-07-21T02:43:08;14.57;;;11.50;;
10248;SDS011;5169;50.560;9.714;2022-07-21T02:45:34;13.60;;;12.20;;
10248;SDS011;5169;50.560;9.714;2022-07-21T02:48:04;19.40;;;17.17;;
10248;SDS011;5169;50.560;9.714;2022-07-21T02:50:35;21.03;;;18.50;;
10248;SDS011;5169;50.560;9.714;2022-07-21T02:53:07;19.80;;;17.03;;
10248;SDS011;5169;50.560;9.714;2022-07-21T02:55:35;16.43;;;13.90;;
10248;SDS011;5169;50.560;9.714;2022-07-21T03:00:39;14.07;;;12.63;;
10248;SDS011;5169;50.560;9.714;2022-07-21T03:03:13;13.63;;;12.23;;
10248;SDS011;5169;50.560;9.714;2022-07-21T03:05:38;14.60;;;13.10;;
10248;SDS011;5169;50.560;9.714;2022-07-21T03:08:05;15.30;;;13.70;;
10248;SDS011;5169;50.560;9.714;2022-07-21T03:10:36;15.23;;;13.17;;
10248;SDS011;5169;50.560;9.714;2022-07-21T03:13:03;15.70;;;14.17;;
10248;SDS011;5169;50.560;9.714;2022-07-21T03:15:29;17.37;;;13.80;;
10248;SDS011;5169;50.560;9.714;2022-07-21T03:17:58;18.77;;;14.30;;
10248;SDS011;5169;50.560;9.714;2022-07-21T03:20:28;16.43;;;14.70;;
10248;SDS011;5169;50.560;9.714;2022-07-21T03:23:02;19.57;;;17.50;;
10248;SDS011;5169;50.560;9.714;2022-07-21T03:25:30;19.50;;;17.23;;
10248;SDS011;5169;50.560;9.714;2022-07-21T03:27:56;20.30;;;18.20;;
10248;SDS011;5169;50.560;9.714;2022-07-21T03:30:23;23.13;;;17.63;;
10248;SDS011;5169;50.560;9.714;2022-07-21T03:32:49;19.87;;;17.70;;
10248;SDS011;5169;50.560;9.714;2022-07-21T03:35:15;19.60;;;17.67;;
10248;SDS011;5169;50.560;9.714;2022-07-21T03:37:53;21.00;;;18.80;;
10248;SDS011;5169;50.560;9.714;2022-07-21T03:40:22;20.70;;;18.60;;
10248;SDS011;5169;50.560;9.714;2022-07-21T03:42:52;20.90;;;18.83;;
10248;SDS011;5169;50.560;9.714;2022-07-21T03:45:21;21.97;;;19.57;;
10248;SDS011;5169;50.560;9.714;2022-07-21T03:47:51;22.20;;;19.73;;
10248;SDS011;5169;50.560;9.714;2022-07-21T03:50:20;22.60;;;20.07;;
10248;SDS011;5169;50.560;9.714;2022-07-21T03:52:48;23.90;;;21.30;;
10248;SDS011;5169;50.560;9.714;2022-07-21T03:55:15;22.33;;;19.97;;
10248;SDS011;5169;50.560;9.714;2022-07-21T03:57:51;23.33;;;20.93;;
10248;SDS011;5169;50.560;9.714;2022-07-21T04:00:25;25.07;;;21.13;;
10248;SDS011;5169;50.560;9.714;2022-07-21T04:02:51;30.17;;;22.37;;
10248;SDS011;5169;50.560;9.714;2022-07-21T04:05:17;24.30;;;21.73;;
10248;SDS011;5169;50.560;9.714;2022-07-21T04:07:44;24.80;;;21.67;;
10248;SDS011;5169;50.560;9.714;2022-07-21T04:10:12;30.00;;;21.90;;
10248;SDS011;5169;50.560;9.714;2022-07-21T04:12:42;24.83;;;22.30;;
10248;SDS011;5169;50.560;9.714;2022-07-21T04:15:11;26.30;;;22.50;;
10248;SDS011;5169;50.560;9.714;2022-07-21T04:17:40;24.23;;;21.70;;
10248;SDS011;5169;50.560;9.714;2022-07-21T04:20:06;25.80;;;23.10;;
10248;SDS011;5169;50.560;9.714;2022-07-21T04:22:36;24.13;;;21.73;;
10248;SDS011;5169;50.560;9.714;2022-07-21T04:25:03;25.67;;;22.17;;
10248;SDS011;5169;50.560;9.714;2022-07-21T04:27:37;24.40;;;21.70;;
10248;SDS011;5169;50.560;9.714;2022-07-21T04:30:05;24.30;;;21.80;;
10248;SDS011;5169;50.560;9.714;2022-07-21T04:32:34;23.93;;;21.40;;
10248;SDS011;5169;50.560;9.714;2022-07-21T04:35:06;23.53;;;20.67;;
10248;SDS011;5169;50.560;9.714;2022-07-21T04:37:33;23.67;;;20.90;;
10248;SDS011;5169;50.560;9.714;2022-07-21T04:40:01;24.27;;;21.67;;
10248;SDS011;5169;50.560;9.714;2022-07-21T04:42:29;24.20;;;21.70;;
10248;SDS011;5169;50.560;9.714;2022-07-21T04:44:55;24.90;;;22.30;;
10248;SDS011;5169;50.560;9.714;2022-07-21T04:47:21;25.27;;;22.77;;
10248;SDS011;5169;50.560;9.714;2022-07-21T04:49:49;25.20;;;22.47;;
10248;SDS011;5169;50.560;9.714;2022-07-21T04:52:15;24.27;;;21.73;;
10248;SDS011;5169;50.560;9.714;2022-07-21T04:54:41;26.07;;;22.47;;
10248;SDS011;5169;50.560;9.714;2022-07-21T04:57:08;25.07;;;22.47;;
10248;SDS011;5169;50.560;9.714;2022-07-21T04:59:37;25.87;;;23.03;;
10248;SDS011;5169;50.560;9.714;2022-07-21T05:02:04;28.27;;;24.40;;
10248;SDS011;5169;50.560;9.714;2022-07-21T05:04:31;28.27;;;24.33;;
10248;SDS011;5169;50.560;9.714;2022-07-21T05:06:57;26.53;;;23.63;;
10248;SDS011;5169;50.560;9.714;2022-07-21T05:09:23;24.30;;;21.70;;
10248;SDS011;5169;50.560;9.714;2022-07-21T05:11:49;25.17;;;22.47;;
10248;SDS011;5169;50.560;9.714;2022-07-21T05:14:18;23.20;;;20.57;;
10248;SDS011;5169;50.560;9.714;2022-07-21T05:16:43;21.37;;;19.27;;
10248;SDS011;5169;50.560;9.714;2022-07-21T05:19:09;20.70;;;18.43;;
10248;SDS011;5169;50.560;9.714;2022-07-21T05:21:35;19.67;;;16.97;;
10248;SDS011;5169;50.560;9.714;2022-07-21T05:24:01;18.40;;;15.80;;
10248;SDS011;5169;50.560;9.714;2022-07-21T05:26:26;17.10;;;15.30;;
10248;SDS011;5169;50.560;9.714;2022-07-21T05:29:00;18.03;;;16.07;;
10248;SDS011;5169;50.560;9.714;2022-07-21T05:31:26;15.60;;;14.10;;
10248;SDS011;5169;50.560;9.714;2022-07-21T05:34:00;16.50;;;14.30;;
10248;SDS011;5169;50.560;9.714;2022-07-21T05:36:26;15.10;;;13.20;;
10248;SDS011;5169;50.560;9.714;2022-07-21T05:38:54;15.40;;;12.33;;
10248;SDS011;5169;50.560;9.714;2022-07-21T05:41:20;12.07;;;10.83;;
10248;SDS011;5169;50.560;9.714;2022-07-21T05:43:46;11.33;;;10.23;;
10248;SDS011;5169;50.560;9.714;2022-07-21T05:46:13;11.47;;;8.17;;
10248;SDS011;5169;50.560;9.714;2022-07-21T05:48:48;10.33;;;8.47;;
10248;SDS011;5169;50.560;9.714;2022-07-21T05:51:13;9.97;;;8.53;;
10248;SDS011;5169;50.560;9.714;2022-07-21T05:53:39;8.73;;;8.03;;
10248;SDS011;5169;50.560;9.714;2022-07-21T05:56:13;9.20;;;7.90;;
10248;SDS011;5169;50.560;9.714;2022-07-21T05:58:39;7.43;;;6.33;;
10248;SDS011;5169;50.560;9.714;2022-07-21T06:01:10;6.07;;;5.37;;
10248;SDS011;5169;50.560;9.714;2022-07-21T06:03:45;7.60;;;6.20;;
10248;SDS011;5169;50.560;9.714;2022-07-21T06:06:13;6.63;;;6.03;;
10248;SDS011;5169;50.560;9.714;2022-07-21T06:08:44;11.17;;;8.53;;
10248;SDS011;5169;50.560;9.714;2022-07-21T06:11:12;9.60;;;8.60;;
10248;SDS011;5169;50.560;9.714;2022-07-21T06:13:46;10.27;;;9.27;;
10248;SDS011;5169;50.560;9.714;2022-07-21T06:16:12;10.87;;;9.30;;
10248;SDS011;5169;50.560;9.714;2022-07-21T06:18:38;12.50;;;10.20;;
10248;SDS011;5169;50.560;9.714;2022-07-21T06:21:04;11.97;;;10.33;;
10248;SDS011;5169;50.560;9.714;2022-07-21T06:23:37;14.10;;;10.60;;
10248;SDS011;5169;50.560;9.714;2022-07-21T06:26:03;12.87;;;10.60;;
10248;SDS011;5169;50.560;9.714;2022-07-21T06:28:37;11.37;;;10.03;;
10248;SDS011;5169;50.560;9.714;2022-07-21T06:31:03;10.90;;;9.80;;
10248;SDS011;5169;50.560;9.714;2022-07-21T06:33:28;10.87;;;9.03;;
10248;SDS011;5169;50.560;9.714;2022-07-21T06:35:54;11.70;;;9.30;;
10248;SDS011;5169;50.560;9.714;2022-07-21T06:38:20;10.60;;;9.60;;
10248;SDS011;5169;50.560;9.714;2022-07-21T06:40:53;11.70;;;10.47;;
10248;SDS011;5169;50.560;9.714;2022-07-21T06:43:19;12.40;;;10.97;;
10248;SDS011;5169;50.560;9.714;2022-07-21T06:45:45;13.13;;;10.33;;
10248;SDS011;5169;50.560;9.714;2022-07-21T06:48:19;10.30;;;9.30;;
10248;SDS011;5169;50.560;9.714;2022-07-21T06:50:49;10.20;;;9.07;;
10248;SDS011;5169;50.560;9.714;2022-07-21T06:53:20;10.33;;;8.53;;
10248;SDS011;5169;50.560;9.714;2022-07-21T06:55:50;9.63;;;8.33;;
10248;SDS011;5169;50.560;9.714;2022-07-21T06:58:20;8.87;;;8.03;;
10248;SDS011;5169;50.560;9.714;2022-07-21T07:00:55;10.63;;;7.63;;
10248;SDS011;5169;50.560;9.714;2022-07-21T07:03:21;9.60;;;6.17;;
10248;SDS011;5169;50.560;9.714;2022-07-21T07:05:50;5.90;;;5.40;;
10248;SDS011;5169;50.560;9.714;2022-07-21T07:08:16;5.40;;;4.90;;
10248;SDS011;5169;50.560;9.714;2022-07-21T07:10:43;5.90;;;5.27;;
10248;SDS011;5169;50.560;9.714;2022-07-21T07:13:18;6.83;;;6.13;;
10248;SDS011;5169;50.560;9.714;2022-07-21T07:15:44;6.97;;;5.93;;
10248;SDS011;5169;50.560;9.714;2022-07-21T07:18:10;6.83;;;6.20;;
10248;SDS011;5169;50.560;9.714;2022-07-21T07:20:41;6.60;;;5.87;;
10248;SDS011;5169;50.560;9.714;2022-07-21T07:23:07;8.07;;;6.47;;
10248;SDS011;5169;50.560;9.714;2022-07-21T07:25:32;8.30;;;5.50;;
10248;SDS011;5169;50.560;9.714;2022-07-21T07:27:58;6.13;;;5.53;;
10248;SDS011;5169;50.560;9.714;2022-07-21T07:30:27;6.93;;;5.47;;
10248;SDS011;5169;50.560;9.714;2022-07-21T07:32:56;7.50;;;5.60;;
10248;SDS011;5169;50.560;9.714;2022-07-21T07:35:29;6.80;;;5.60;;
10248;SDS011;5169;50.560;9.714;2022-07-21T07:37:55;6.17;;;5.57;;
10248;SDS011;5169;50.560;9.714;2022-07-21T07:40:21;6.93;;;6.10;;
10248;SDS011;5169;50.560;9.714;2022-07-21T07:42:50;6.67;;;6.07;;
10248;SDS011;5169;50.560;9.714;2022-07-21T07:45:16;6.47;;;5.77;;
10248;SDS011;5169;50.560;9.714;2022-07-21T07:47:42;7.57;;;6.77;;
10248;SDS011;5169;50.560;9.714;2022-07-21T07:50:11;7.40;;;6.70;;
10248;SDS011;5169;50.560;9.714;2022-07-21T07:52:40;7.70;;;6.90;;
10248;SDS011;5169;50.560;9.714;2022-07-21T07:55:21;7.63;;;6.83;;
10248;SDS011;5169;50.560;9.714;2022-07-21T07:57:46;7.13;;;6.43;;
10248;SDS011;5169;50.560;9.714;2022-07-21T08:00:18;7.93;;;6.57;;
10248;SDS011;5169;50.560;9.714;2022-07-21T08:02:44;7.77;;;6.77;;
10248;SDS011;5169;50.560;9.714;2022-07-21T08:05:10;7.87;;;6.57;;
10248;SDS011;5169;50.560;9.714;2022-07-21T08:07:42;8.40;;;5.97;;
10248;SDS011;5169;50.560;9.714;2022-07-21T08:10:08;7.57;;;6.37;;
10248;SDS011;5169;50.560;9.714;2022-07-21T08:12:40;7.77;;;6.80;;
10248;SDS011;5169;50.560;9.714;2022-07-21T08:15:06;7.27;;;6.10;;
10248;SDS011;5169;50.560;9.714;2022-07-21T08:17:33;6.87;;;6.07;;
10248;SDS011;5169;50.560;9.714;2022-07-21T08:20:07;7.50;;;6.20;;
10248;SDS011;5169;50.560;9.714;2022-07-21T08:22:34;6.93;;;6.23;;
10248;SDS011;5169;50.560;9.714;2022-07-21T08:25:08;7.63;;;6.30;;
10248;SDS011;5169;50.560;9.714;2022-07-21T08:27:33;6.50;;;5.90;;
10248;SDS011;5169;50.560;9.714;2022-07-21T08:30:08;7.33;;;6.20;;
10248;SDS011;5169;50.560;9.714;2022-07-21T08:32:39;7.40;;;6.47;;
10248;SDS011;5169;50.560;9.714;2022-07-21T08:35:05;8.33;;;6.37;;
10248;SDS011;5169;50.560;9.714;2022-07-21T08:37:34;6.47;;;5.80;;
10248;SDS011;5169;50.560;9.714;2022-07-21T08:40:05;7.07;;;6.37;;
10248;SDS011;5169;50.560;9.714;2022-07-21T08:42:41;6.70;;;6.10;;
10248;SDS011;5169;50.560;9.714;2022-07-21T08:45:07;7.37;;;6.67;;
10248;SDS011;5169;50.560;9.714;2022-07-21T08:47:38;7.40;;;5.80;;
10248;SDS011;5169;50.560;9.714;2022-07-21T08:50:04;7.97;;;5.63;;
10248;SDS011;5169;50.560;9.714;2022-07-21T08:52:32;6.07;;;5.20;;
10248;SDS011;5169;50.560;9.714;2022-07-21T08:54:58;6.40;;;5.80;;
10248;SDS011;5169;50.560;9.714;2022-07-21T08:57:30;5.60;;;5.10;;
10248;SDS011;5169;50.560;9.714;2022-07-21T08:59:56;6.63;;;6.03;;
10248;SDS011;5169;50.560;9.714;2022-07-21T09:02:25;5.80;;;5.30;;
10248;SDS011;5169;50.560;9.714;2022-07-21T09:04:58;6.73;;;5.63;;
10248;SDS011;5169;50.560;9.714;2022-07-21T09:10:25;6.33;;;5.73;;
10248;SDS011;5169;50.560;9.714;2022-07-21T09:12:59;5.67;;;5.10;;
10248;SDS011;5169;50.560;9.714;2022-07-21T09:15:28;6.47;;;5.87;;
10248;SDS011;5169;50.560;9.714;2022-07-21T09:18:14;5.90;;;5.40;;
10248;SDS011;5169;50.560;9.714;2022-07-21T09:20:47;7.67;;;5.37;;
10248;SDS011;5169;50.560;9.714;2022-07-21T09:23:23;7.37;;;6.10;;
10248;SDS011;5169;50.560;9.714;2022-07-21T09:25:50;7.23;;;6.53;;
10248;SDS011;5169;50.560;9.714;2022-07-21T09:28:25;6.53;;;5.87;;
10248;SDS011;5169;50.560;9.714;2022-07-21T09:30:58;6.77;;;6.07;;
10248;SDS011;5169;50.560;9.714;2022-07-21T09:33:44;9.40;;;6.27;;
10248;SDS011;5169;50.560;9.714;2022-07-21T09:36:11;7.10;;;6.10;;
10248;SDS011;5169;50.560;9.714;2022-07-21T09:41:22;8.00;;;6.33;;
10248;SDS011;5169;50.560;9.714;2022-07-21T09:43:52;8.70;;;6.53;;
10248;SDS011;5169;50.560;9.714;2022-07-21T09:48:49;8.43;;;6.20;;
10248;SDS011;5169;50.560;9.714;2022-07-21T09:51:32;6.53;;;5.93;;
10248;SDS011;5169;50.560;9.714;2022-07-21T09:56:27;6.10;;;5.47;;
10248;SDS011;5169;50.560;9.714;2022-07-21T09:59:00;7.40;;;5.50;;
10248;SDS011;5169;50.560;9.714;2022-07-21T10:01:34;5.87;;;5.27;;
10248;SDS011;5169;50.560;9.714;2022-07-21T10:04:11;6.57;;;5.53;;
10248;SDS011;5169;50.560;9.714;2022-07-21T10:06:38;6.20;;;5.60;;
10248;SDS011;5169;50.560;9.714;2022-07-21T10:09:08;7.03;;;5.40;;
10248;SDS011;5169;50.560;9.714;2022-07-21T10:11:35;5.73;;;4.97;;
10248;SDS011;5169;50.560;9.714;2022-07-21T10:14:01;5.33;;;4.30;;
10248;SDS011;5169;50.560;9.714;2022-07-21T10:16:28;5.50;;;4.50;;
10248;SDS011;5169;50.560;9.714;2022-07-21T10:24:03;5.57;;;4.97;;
10248;SDS011;5169;50.560;9.714;2022-07-21T10:26:33;6.13;;;4.50;;
10248;SDS011;5169;50.560;9.714;2022-07-21T10:28:58;6.70;;;4.80;;
10248;SDS011;5169;50.560;9.714;2022-07-21T10:31:24;5.30;;;4.80;;
10248;SDS011;5169;50.560;9.714;2022-07-21T10:33:59;7.43;;;4.83;;
10248;SDS011;5169;50.560;9.714;2022-07-21T10:47:12;5.25;;;3.38;;
10248;SDS011;5169;50.560;9.714;2022-07-21T10:49:53;4.88;;;3.83;;
10248;SDS011;5169;50.560;9.714;2022-07-21T10:57:35;4.53;;;3.20;;
10248;SDS011;5169;50.560;9.714;2022-07-21T11:02:58;5.28;;;3.45;;
10248;SDS011;5169;50.560;9.714;2022-07-21T11:05:30;6.32;;;3.83;;
10248;SDS011;5169;50.560;9.714;2022-07-21T11:08:38;5.07;;;3.90;;
10248;SDS011;5169;50.560;9.714;2022-07-21T11:14:05;5.88;;;3.95;;
10248;SDS011;5169;50.560;9.714;2022-07-21T11:21:51;5.30;;;3.50;;
10248;SDS011;5169;50.560;9.714;2022-07-21T11:24:18;4.00;;;3.25;;
10248;SDS011;5169;50.560;9.714;2022-07-21T11:27:05;5.97;;;3.80;;
10248;SDS011;5169;50.560;9.714;2022-07-21T11:29:42;4.35;;;3.85;;
10248;SDS011;5169;50.560;9.714;2022-07-21T11:32:13;5.28;;;4.00;;
10248;SDS011;5169;50.560;9.714;2022-07-21T11:37:15;4.60;;;4.20;;
10248;SDS011;5169;50.560;9.714;2022-07-21T11:40:06;5.78;;;4.00;;
10248;SDS011;5169;50.560;9.714;2022-07-21T11:42:41;4.65;;;4.03;;
10248;SDS011;5169;50.560;9.714;2022-07-21T11:45:15;5.95;;;3.88;;
10248;SDS011;5169;50.560;9.714;2022-07-21T11:47:42;4.15;;;3.50;;
10248;SDS011;5169;50.560;9.714;2022-07-21T11:50:17;3.78;;;3.45;;
10248;SDS011;5169;50.560;9.714;2022-07-21T11:52:46;5.07;;;3.53;;
10248;SDS011;5169;50.560;9.714;2022-07-21T11:55:12;5.00;;;3.88;;
10248;SDS011;5169;50.560;9.714;2022-07-21T11:57:49;4.80;;;3.63;;
10248;SDS011;5169;50.560;9.714;2022-07-21T12:00:15;5.57;;;3.70;;
10248;SDS011;5169;50.560;9.714;2022-07-21T12:02:41;3.40;;;3.03;;
10248;SDS011;5169;50.560;9.714;2022-07-21T12:05:14;3.67;;;3.28;;
10248;SDS011;5169;50.560;9.714;2022-07-21T12:07:42;6.68;;;3.53;;
10248;SDS011;5169;50.560;9.714;2022-07-21T12:12:51;3.90;;;3.58;;
10248;SDS011;5169;50.560;9.714;2022-07-21T12:15:26;3.95;;;3.40;;
10248;SDS011;5169;50.560;9.714;2022-07-21T12:18:01;3.88;;;3.58;;
10248;SDS011;5169;50.560;9.714;2022-07-21T12:25:53;5.03;;;3.70;;
10248;SDS011;5169;50.560;9.714;2022-07-21T12:31:19;6.65;;;3.92;;
10248;SDS011;5169;50.560;9.714;2022-07-21T12:33:51;4.70;;;3.65;;
10248;SDS011;5169;50.560;9.714;2022-07-21T12:36:19;5.20;;;3.50;;
10248;SDS011;5169;50.560;9.714;2022-07-21T12:38:48;4.07;;;3.65;;
10248;SDS011;5169;50.560;9.714;2022-07-21T12:41:19;4.07;;;3.67;;
10248;SDS011;5169;50.560;9.714;2022-07-21T12:44:00;3.80;;;3.42;;
10248;SDS011;5169;50.560;9.714;2022-07-21T12:46:31;4.88;;;3.83;;
10248;SDS011;5169;50.560;9.714;2022-07-21T12:49:04;4.25;;;3.85;;
10248;SDS011;5169;50.560;9.714;2022-07-21T12:51:39;4.78;;;3.80;;
10248;SDS011;5169;50.560;9.714;2022-07-21T12:54:06;4.00;;;3.40;;
10248;SDS011;5169;50.560;9.714;2022-07-21T12:56:36;4.47;;;3.28;;
10248;SDS011;5169;50.560;9.714;2022-07-21T12:59:04;4.45;;;3.22;;
10248;SDS011;5169;50.560;9.714;2022-07-21T13:01:38;3.83;;;3.25;;
10248;SDS011;5169;50.560;9.714;2022-07-21T13:04:06;5.68;;;3.60;;
10248;SDS011;5169;50.560;9.714;2022-07-21T13:06:40;4.78;;;3.53;;
10248;SDS011;5169;50.560;9.714;2022-07-21T13:09:11;5.55;;;3.55;;
10248;SDS011;5169;50.560;9.714;2022-07-21T13:11:36;4.10;;;3.70;;
10248;SDS011;5169;50.560;9.714;2022-07-21T13:14:02;5.13;;;3.88;;
10248;SDS011;5169;50.560;9.714;2022-07-21T13:16:31;5.20;;;3.20;;
10248;SDS011;5169;50.560;9.714;2022-07-21T13:19:05;4.10;;;3.80;;
10248;SDS011;5169;50.560;9.714;2022-07-21T13:21:37;4.77;;;3.87;;
10248;SDS011;5169;50.560;9.714;2022-07-21T13:24:05;4.40;;;3.75;;
10248;SDS011;5169;50.560;9.714;2022-07-21T13:26:31;3.95;;;3.55;;
10248;SDS011;5169;50.560;9.714;2022-07-21T13:29:02;4.93;;;3.90;;
10248;SDS011;5169;50.560;9.714;2022-07-21T13:31:30;3.95;;;3.38;;
10248;SDS011;5169;50.560;9.714;2022-07-21T13:34:06;5.65;;;3.70;;
10248;SDS011;5169;50.560;9.714;2022-07-21T13:36:43;5.93;;;3.33;;
10248;SDS011;5169;50.560;9.714;2022-07-21T13:39:12;3.42;;;3.13;;
10248;SDS011;5169;50.560;9.714;2022-07-21T13:41:39;4.20;;;3.20;;
10248;SDS011;5169;50.560;9.714;2022-07-21T13:44:13;3.50;;;3.20;;
10248;SDS011;5169;50.560;9.714;2022-07-21T13:46:38;3.53;;;3.15;;
10248;SDS011;5169;50.560;9.714;2022-07-21T13:49:04;4.00;;;3.60;;
10248;SDS011;5169;50.560;9.714;2022-07-21T13:51:30;3.63;;;3.30;;
10248;SDS011;5169;50.560;9.714;2022-07-21T13:53:59;3.88;;;3.55;;
10248;SDS011;5169;50.560;9.714;2022-07-21T13:56:24;4.15;;;3.55;;
10248;SDS011;5169;50.560;9.714;2022-07-21T13:58:52;4.72;;;3.92;;
10248;SDS011;5169;50.560;9.714;2022-07-21T14:01:18;3.85;;;3.55;;
10248;SDS011;5169;50.560;9.714;2022-07-21T14:03:50;4.57;;;3.15;;
10248;SDS011;5169;50.560;9.714;2022-07-21T14:06:18;4.30;;;3.90;;
10248;SDS011;5169;50.560;9.714;2022-07-21T14:08:58;3.70;;;3.40;;
10248;SDS011;5169;50.560;9.714;2022-07-21T14:11:26;4.47;;;3.58;;
10248;SDS011;5169;50.560;9.714;2022-07-21T14:13:53;3.78;;;3.40;;
10248;SDS011;5169;50.560;9.714;2022-07-21T14:16:26;4.03;;;3.55;;
10248;SDS011;5169;50.560;9.714;2022-07-21T14:18:52;4.05;;;3.30;;
10248;SDS011;5169;50.560;9.714;2022-07-21T14:21:18;4.70;;;3.08;;
10248;SDS011;5169;50.560;9.714;2022-07-21T14:23:46;4.53;;;3.25;;
10248;SDS011;5169;50.560;9.714;2022-07-21T14:26:38;5.72;;;3.80;;
10248;SDS011;5169;50.560;9.714;2022-07-21T14:29:05;4.60;;;3.67;;
10248;SDS011;5169;50.560;9.714;2022-07-21T14:31:31;3.83;;;3.38;;
10248;SDS011;5169;50.560;9.714;2022-07-21T14:34:02;4.45;;;3.33;;
10248;SDS011;5169;50.560;9.714;2022-07-21T14:36:28;4.13;;;3.38;;
10248;SDS011;5169;50.560;9.714;2022-07-21T14:38:54;3.17;;;2.85;;
10248;SDS011;5169;50.560;9.714;2022-07-21T14:41:22;5.10;;;3.35;;
10248;SDS011;5169;50.560;9.714;2022-07-21T14:43:50;4.10;;;3.40;;
10248;SDS011;5169;50.560;9.714;2022-07-21T14:46:22;3.88;;;3.35;;
10248;SDS011;5169;50.560;9.714;2022-07-21T14:48:48;6.22;;;3.13;;
10248;SDS011;5169;50.560;9.714;2022-07-21T14:51:14;3.45;;;3.15;;
10248;SDS011;5169;50.560;9.714;2022-07-21T14:53:43;3.03;;;2.80;;
10248;SDS011;5169;50.560;9.714;2022-07-21T14:56:11;3.67;;;3.25;;
10248;SDS011;5169;50.560;9.714;2022-07-21T14:58:38;4.40;;;3.35;;
10248;SDS011;5169;50.560;9.714;2022-07-21T15:01:04;3.83;;;3.03;;
10248;SDS011;5169;50.560;9.714;2022-07-21T15:03:30;5.00;;;3.20;;
10248;SDS011;5169;50.560;9.714;2022-07-21T15:05:57;3.67;;;3.08;;
10248;SDS011;5169;50.560;9.714;2022-07-21T15:08:23;5.43;;;3.03;;
10248;SDS011;5169;50.560;9.714;2022-07-21T15:10:51;3.42;;;2.95;;
10248;SDS011;5169;50.560;9.714;2022-07-21T15:13:19;3.08;;;2.78;;
10248;SDS011;5169;50.560;9.714;2022-07-21T15:15:46;3.38;;;3.05;;
10248;SDS011;5169;50.560;9.714;2022-07-21T15:18:12;3.58;;;2.75;;
10248;SDS011;5169;50.560;9.714;2022-07-21T15:20:38;3.95;;;3.15;;
10248;SDS011;5169;50.560;9.714;2022-07-21T15:23:04;3.17;;;2.85;;
10248;SDS011;5169;50.560;9.714;2022-07-21T15:25:30;3.72;;;2.72;;
10248;SDS011;5169;50.560;9.714;2022-07-21T15:27:56;4.03;;;3.10;;
10248;SDS011;5169;50.560;9.714;2022-07-21T15:30:22;3.45;;;2.75;;
10248;SDS011;5169;50.560;9.714;2022-07-21T15:32:47;3.00;;;2.70;;
10248;SDS011;5169;50.560;9.714;2022-07-21T15:35:13;4.03;;;3.00;;
10248;SDS011;5169;50.560;9.714;2022-07-21T15:37:46;3.08;;;2.78;;
10248;SDS011;5169;50.560;9.714;2022-07-21T15:40:12;4.60;;;2.80;;
10248;SDS011;5169;50.560;9.714;2022-07-21T15:42:39;4.45;;;3.30;;
10248;SDS011;5169;50.560;9.714;2022-07-21T15:45:08;3.65;;;3.35;;
10248;SDS011;5169;50.560;9.714;2022-07-21T15:47:38;4.95;;;3.00;;
10248;SDS011;5169;50.560;9.714;2022-07-21T15:50:04;3.67;;;3.30;;
10248;SDS011;5169;50.560;9.714;2022-07-21T15:52:31;4.65;;;3.20;;
10248;SDS011;5169;50.560;9.714;2022-07-21T15:54:59;4.63;;;2.87;;
10248;SDS011;5169;50.560;9.714;2022-07-21T15:57:24;4.10;;;2.85;;
10248;SDS011;5169;50.560;9.714;2022-07-21T15:59:50;4.50;;;3.20;;
10248;SDS011;5169;50.560;9.714;2022-07-21T16:02:17;3.63;;;3.33;;